createdAt,value
2023-06-09T00:00:56.540Z,100375.77
2023-06-09T00:06:00.334Z,100373.67
2023-06-09T00:11:02.128Z,100370.61
2023-06-09T00:16:03.862Z,100370.06
2023-06-09T00:21:05.740Z,100368.41
2023-06-09T00:26:07.291Z,100369.39
2023-06-09T00:31:08.850Z,100361.45
2023-06-09T00:36:10.388Z,100362.66
2023-06-09T00:41:11.927Z,100363.66
2023-06-09T00:46:13.574Z,100364.84
2023-06-09T00:51:15.703Z,100363.24
2023-06-09T00:56:19.496Z,100360.48
2023-06-09T01:01:21.170Z,100360.84
2023-06-09T01:06:40.256Z,100357.52
2023-06-09T01:12:00.491Z,100356.73
2023-06-09T01:17:12.481Z,100358.96
2023-06-09T01:22:29.394Z,100357.02
2023-06-09T01:27:31.210Z,100356.30
2023-06-09T01:32:33.961Z,100361.66
2023-06-09T01:37:35.738Z,100356.13
2023-06-09T01:42:38.822Z,100352.61
2023-06-09T01:47:40.816Z,100348.09
2023-06-09T01:53:05.464Z,100344.98
2023-06-09T01:58:25.204Z,100346.31
2023-06-09T02:03:31.204Z,100348.36
2023-06-09T02:08:33.775Z,100344.21
2023-06-09T02:13:35.764Z,100343.33
2023-06-09T02:18:38.386Z,100343.95
2023-06-09T02:23:40.514Z,100347.13
2023-06-09T02:28:42.298Z,100345.55
2023-06-09T02:33:44.188Z,100348.72
2023-06-09T02:38:46.308Z,100350.36
2023-06-09T02:43:47.841Z,100352.54
2023-06-09T02:48:50.139Z,100352.29
2023-06-09T02:53:51.796Z,100348.48
2023-06-09T02:58:54.382Z,100344.17
2023-06-09T03:03:55.996Z,100346.39
2023-06-09T03:08:57.638Z,100340.38
2023-06-09T03:13:59.211Z,100336.95
2023-06-09T03:19:01.562Z,100339.07
2023-06-09T03:24:04.864Z,100343.23
2023-06-09T03:29:06.458Z,100344.27
2023-06-09T03:34:08.329Z,100349.52
2023-06-09T03:39:09.763Z,100348.55
2023-06-09T03:44:11.348Z,100357.34
2023-06-09T03:49:12.928Z,100364.84
2023-06-09T03:54:14.496Z,100375.50
2023-06-09T03:59:16.257Z,100377.95
2023-06-09T04:04:17.845Z,100378.52
2023-06-09T04:09:19.816Z,100383.39
2023-06-09T04:14:21.376Z,100386.58
2023-06-09T04:19:23.468Z,100386.47
2023-06-09T04:24:25.046Z,100393.83
2023-06-09T04:29:27.206Z,100393.16
2023-06-09T04:34:30.154Z,100391.19
2023-06-09T04:39:31.685Z,100386.75
2023-06-09T04:44:33.974Z,100384.56
2023-06-09T04:49:36.263Z,100378.42
2023-06-09T04:54:37.792Z,100379.27
2023-06-09T04:59:42.977Z,100374.06
2023-06-09T05:04:44.706Z,100374.63
2023-06-09T05:09:46.666Z,100375.08
2023-06-09T05:14:48.297Z,100374.84
2023-06-09T05:19:49.826Z,100377.38
2023-06-09T05:24:51.933Z,100377.48
2023-06-09T05:29:53.452Z,100374.65
2023-06-09T05:34:54.976Z,100369.88
2023-06-09T05:39:56.768Z,100365.20
2023-06-09T05:44:58.322Z,100367.66
2023-06-09T05:49:59.889Z,100367.12
2023-06-09T05:55:02.830Z,100371.30
2023-06-09T06:00:09.884Z,100370.27
2023-06-09T06:05:13.470Z,100370.67
2023-06-09T06:10:15.601Z,100371.61
2023-06-09T06:15:17.377Z,100373.66
2023-06-09T06:20:18.902Z,100371.70
2023-06-09T06:25:20.467Z,100374.48
2023-06-09T06:30:28.541Z,100375.33
2023-06-09T06:35:30.563Z,100370.08
2023-06-09T06:40:32.345Z,100368.04
2023-06-09T06:45:33.883Z,100368.34
2023-06-09T06:50:35.428Z,100370.17
2023-06-09T06:55:38.234Z,100368.73
2023-06-09T07:00:40.589Z,100367.58
2023-06-09T07:05:42.145Z,100369.40
2023-06-09T07:10:43.667Z,100369.27
2023-06-09T07:15:45.341Z,100368.80
2023-06-09T07:20:48.817Z,100370.30
2023-06-09T07:25:50.767Z,100371.38
2023-06-09T07:30:53.142Z,100374.57
2023-06-09T07:35:54.565Z,100367.61
2023-06-09T07:40:56.186Z,100365.41
2023-06-09T07:45:57.993Z,100365.69
2023-06-09T07:51:04.167Z,100357.98
2023-06-09T07:56:05.741Z,100359.31
2023-06-09T08:01:07.256Z,100352.52
2023-06-09T08:06:11.691Z,100354.75
2023-06-09T08:11:13.282Z,100352.80
2023-06-09T08:16:14.831Z,100348.16
2023-06-09T08:21:17.540Z,100350.58
2023-06-09T08:26:19.362Z,100350.57
2023-06-09T08:31:21.561Z,100351.58
2023-06-09T08:36:24.210Z,100352.01
2023-06-09T08:41:33.481Z,100343.94
2023-06-09T08:46:39.461Z,100346.38
2023-06-09T08:51:44.224Z,100342.65
2023-06-09T08:56:48.444Z,100344.61
2023-06-09T09:01:51.195Z,100347.28
2023-06-09T09:06:54.589Z,100343.53
2023-06-09T09:11:59.647Z,100341.42
2023-06-09T09:17:08.801Z,100338.05
2023-06-09T09:22:10.364Z,100335.93
2023-06-09T09:27:20.014Z,100333.85
2023-06-09T09:32:29.921Z,100331.91
2023-06-09T09:37:32.194Z,100330.02
2023-06-09T09:42:34.122Z,100326.35
2023-06-09T09:47:35.706Z,100325.58
2023-06-09T09:52:37.522Z,100325.70
2023-06-09T09:57:40.981Z,100322.45
2023-06-09T10:02:44.799Z,100319.61
2023-06-09T10:07:53.016Z,100315.41
2023-06-09T10:12:56.781Z,100314.83
2023-06-09T10:17:59.642Z,100308.50
2023-06-09T10:23:01.753Z,100305.78
2023-06-09T10:28:03.736Z,100299.61
2023-06-09T10:33:19.429Z,100291.61
2023-06-09T10:38:26.927Z,100289.86
2023-06-09T10:44:07.103Z,100279.08
2023-06-09T10:49:09.372Z,100269.74
2023-06-09T10:54:11.234Z,100265.59
2023-06-09T10:59:25.041Z,100257.79
2023-06-09T11:04:50.241Z,100265.46
2023-06-09T11:09:51.757Z,100258.79
2023-06-09T11:14:58.960Z,100254.29
2023-06-09T11:20:22.000Z,100262.66
2023-06-09T11:25:27.770Z,100272.16
2023-06-09T11:30:32.657Z,100276.23
2023-06-09T11:35:40.906Z,100279.17
2023-06-09T11:40:53.379Z,100276.94
2023-06-09T11:46:02.974Z,100274.03
2023-06-09T11:51:04.713Z,100273.45
2023-06-09T11:56:06.304Z,100292.48
2023-06-09T12:01:07.907Z,100281.48
2023-06-09T12:06:09.442Z,100304.86
2023-06-09T12:11:20.570Z,100310.00
2023-06-09T12:16:25.117Z,100309.86
2023-06-09T12:21:26.775Z,100306.49
2023-06-09T12:26:38.791Z,100302.02
2023-06-09T12:31:47.946Z,100307.81
2023-06-09T12:36:51.058Z,100306.79
2023-06-09T12:41:53.112Z,100306.14
2023-06-09T12:46:58.243Z,100292.05
2023-06-09T12:52:01.140Z,100294.52
2023-06-09T12:57:02.711Z,100302.23
2023-06-09T13:02:04.741Z,100295.54
2023-06-09T13:07:06.296Z,100280.96
2023-06-09T13:12:08.481Z,100275.92
2023-06-09T13:17:10.048Z,100269.45
2023-06-09T13:22:11.691Z,100264.38
2023-06-09T13:27:13.275Z,100265.55
2023-06-09T13:32:14.858Z,100259.40
2023-06-09T13:37:16.400Z,100246.23
2023-06-09T13:42:17.918Z,100234.91
2023-06-09T13:47:19.652Z,100230.86
2023-06-09T13:52:21.193Z,100228.34
2023-06-09T13:57:22.732Z,100226.61
2023-06-09T14:02:24.693Z,100226.84
2023-06-09T14:07:27.256Z,100220.44
2023-06-09T14:12:28.978Z,100222.92
2023-06-09T14:17:30.631Z,100225.91
2023-06-09T14:22:32.277Z,100226.27
2023-06-09T14:27:33.806Z,100223.96
2023-06-09T14:32:38.317Z,100216.58
2023-06-09T14:37:40.042Z,100216.08
2023-06-09T14:42:41.577Z,100213.41
2023-06-09T14:47:43.186Z,100212.52
2023-06-09T14:52:44.885Z,100209.30
2023-06-09T14:57:46.441Z,100205.14
2023-06-09T15:02:52.008Z,100208.23
2023-06-09T15:07:58.686Z,100212.52
2023-06-09T15:13:01.703Z,100217.40
2023-06-09T15:18:09.848Z,100218.04
2023-06-09T15:23:12.757Z,100218.19
2023-06-09T15:28:16.695Z,100215.08
2023-06-09T15:33:20.738Z,100205.92
2023-06-09T15:38:29.992Z,100198.22
2023-06-09T15:43:38.206Z,100200.30
2023-06-09T15:48:40.333Z,100202.48
2023-06-09T15:53:41.882Z,100203.99
2023-06-09T15:58:43.434Z,100206.02
2023-06-09T16:03:45.089Z,100204.36
2023-06-09T16:08:46.812Z,100204.50
2023-06-09T16:13:48.368Z,100213.52
2023-06-09T16:18:49.933Z,100209.04
2023-06-09T16:23:52.149Z,100211.39
2023-06-09T16:28:54.080Z,100207.59
2023-06-09T16:33:55.592Z,100212.35
2023-06-09T16:38:57.118Z,100218.88
2023-06-09T16:44:01.288Z,100225.36
2023-06-09T16:49:03.413Z,100227.48
2023-06-09T16:54:05.181Z,100229.20
2023-06-09T16:59:06.751Z,100233.66
2023-06-09T17:04:08.440Z,100232.09
2023-06-09T17:09:10.249Z,100233.52
2023-06-09T17:14:11.782Z,100228.20
2023-06-09T17:19:13.340Z,100237.42
2023-06-09T17:24:15.136Z,100242.39
2023-06-09T17:29:16.944Z,100243.49
2023-06-09T17:34:18.754Z,100249.67
2023-06-09T17:39:20.294Z,100256.52
2023-06-09T17:44:21.890Z,100255.44
2023-06-09T17:49:23.532Z,100254.20
2023-06-09T17:54:27.087Z,100250.70
2023-06-09T17:59:28.629Z,100245.95
2023-06-09T18:04:30.155Z,100247.95
2023-06-09T18:09:32.990Z,100243.91
2023-06-09T18:14:34.541Z,100237.02
2023-06-09T18:19:37.273Z,100236.13
2023-06-09T18:24:38.804Z,100245.75
2023-06-09T18:29:40.496Z,100248.41
2023-06-09T18:34:42.479Z,100258.09
2023-06-09T18:39:44.200Z,100267.23
2023-06-09T18:44:45.990Z,100272.46
2023-06-09T18:49:48.320Z,100278.02
2023-06-09T18:54:50.341Z,100282.05
2023-06-09T18:59:52.005Z,100290.98
2023-06-09T19:04:53.636Z,100294.21
2023-06-09T19:09:55.839Z,100291.84
2023-06-09T19:14:58.039Z,100289.35
2023-06-09T19:19:59.899Z,100298.51
2023-06-09T19:25:01.481Z,100301.02
2023-06-09T19:30:04.680Z,100300.06
2023-06-09T19:35:07.232Z,100305.66
2023-06-09T19:40:10.052Z,100304.98
2023-06-09T19:45:11.988Z,100310.38
2023-06-09T19:50:13.620Z,100306.02
2023-06-09T19:55:18.159Z,100302.30
2023-06-09T20:00:26.444Z,100305.38
2023-06-09T20:05:28.044Z,100307.38
2023-06-09T20:10:29.799Z,100303.47
2023-06-09T20:15:31.459Z,100301.29
2023-06-09T20:20:33.567Z,100300.48
2023-06-09T20:25:35.433Z,100306.80
2023-06-09T20:30:37.372Z,100306.63
2023-06-09T20:35:38.883Z,100306.23
2023-06-09T20:40:40.453Z,100310.80
2023-06-09T20:45:43.451Z,100314.17
2023-06-09T20:50:46.227Z,100317.84
2023-06-09T20:55:47.799Z,100328.98
2023-06-09T21:00:52.343Z,100334.66
2023-06-09T21:05:54.210Z,100339.45
2023-06-09T21:10:55.880Z,100339.66
2023-06-09T21:15:57.787Z,100345.70
2023-06-09T21:20:59.783Z,100347.84
2023-06-09T21:26:01.420Z,100345.75
2023-06-09T21:31:03.475Z,100339.45
2023-06-09T21:36:06.632Z,100338.33
2023-06-09T21:41:08.366Z,100338.50
2023-06-09T21:46:09.902Z,100336.00
2023-06-09T21:51:11.439Z,100335.91
2023-06-09T21:56:13.680Z,100329.69
2023-06-09T22:01:16.404Z,100326.73
2023-06-09T22:06:18.176Z,100325.26
2023-06-09T22:11:19.712Z,100331.58
2023-06-09T22:16:21.901Z,100338.31
2023-06-09T22:21:23.573Z,100341.16
2023-06-09T22:26:25.130Z,100345.37
2023-06-09T22:31:28.241Z,100347.13
2023-06-09T22:36:29.942Z,100346.63
2023-06-09T22:41:31.797Z,100349.30
2023-06-09T22:46:33.387Z,100341.83
2023-06-09T22:51:35.067Z,100341.07
2023-06-09T22:56:36.797Z,100336.50
2023-06-09T23:01:38.365Z,100336.17
2023-06-09T23:06:41.257Z,100334.15
2023-06-09T23:11:42.777Z,100335.34
2023-06-09T23:16:44.599Z,100334.47
2023-06-09T23:21:51.200Z,100338.25
2023-06-09T23:26:52.739Z,100333.89
2023-06-09T23:31:54.317Z,100332.98
2023-06-09T23:36:56.523Z,100334.79
2023-06-09T23:41:58.038Z,100333.95
2023-06-09T23:46:59.940Z,100329.12
2023-06-09T23:52:01.979Z,100333.69
2023-06-09T23:57:03.674Z,100335.84
